sensor_id;sensor_type;location;lat;lon;timestamp;temperature;humidity
19803;DHT22;66074;50.764;6.090;2023-07-13T00:00:42;19.60;75.70
19803;DHT22;66074;50.764;6.090;2023-07-13T00:03:07;19.60;75.50
19803;DHT22;66074;50.764;6.090;2023-07-13T00:05:33;19.60;76.10
19803;DHT22;66074;50.764;6.090;2023-07-13T00:07:59;19.50;75.60
19803;DHT22;66074;50.764;6.090;2023-07-13T00:10:25;19.50;75.50
19803;DHT22;66074;50.764;6.090;2023-07-13T00:12:52;19.50;76.20
19803;DHT22;66074;50.764;6.090;2023-07-13T00:15:23;19.50;76.00
19803;DHT22;66074;50.764;6.090;2023-07-13T00:17:51;19.50;75.70
19803;DHT22;66074;50.764;6.090;2023-07-13T00:20:17;19.50;75.90
19803;DHT22;66074;50.764;6.090;2023-07-13T00:22:42;19.40;76.10
19803;DHT22;66074;50.764;6.090;2023-07-13T00:25:11;19.40;76.00
19803;DHT22;66074;50.764;6.090;2023-07-13T00:27:37;19.40;76.60
19803;DHT22;66074;50.764;6.090;2023-07-13T00:40:11;19.20;76.70
19803;DHT22;66074;50.764;6.090;2023-07-13T00:42:37;19.10;76.60
19803;DHT22;66074;50.764;6.090;2023-07-13T00:47:40;19.10;76.70
19803;DHT22;66074;50.764;6.090;2023-07-13T00:50:13;19.00;76.90
19803;DHT22;66074;50.764;6.090;2023-07-13T00:52:43;19.00;76.40
19803;DHT22;66074;50.764;6.090;2023-07-13T00:55:09;19.00;76.90
19803;DHT22;66074;50.764;6.090;2023-07-13T00:57:36;19.00;76.80
19803;DHT22;66074;50.764;6.090;2023-07-13T01:00:04;19.00;76.80
19803;DHT22;66074;50.764;6.090;2023-07-13T01:02:33;19.00;76.60
19803;DHT22;66074;50.764;6.090;2023-07-13T01:04:59;19.00;77.70
19803;DHT22;66074;50.764;6.090;2023-07-13T01:07:27;19.00;76.80
19803;DHT22;66074;50.764;6.090;2023-07-13T01:09:52;18.90;76.90
19803;DHT22;66074;50.764;6.090;2023-07-13T01:12:18;18.90;77.70
19803;DHT22;66074;50.764;6.090;2023-07-13T01:14:44;18.90;77.30
19803;DHT22;66074;50.764;6.090;2023-07-13T01:17:12;18.90;77.10
19803;DHT22;66074;50.764;6.090;2023-07-13T01:19:45;18.90;77.00
19803;DHT22;66074;50.764;6.090;2023-07-13T01:22:17;18.80;77.30
19803;DHT22;66074;50.764;6.090;2023-07-13T01:24:47;18.80;77.20
19803;DHT22;66074;50.764;6.090;2023-07-13T01:27:16;18.70;76.80
19803;DHT22;66074;50.764;6.090;2023-07-13T01:29:44;18.70;77.20
19803;DHT22;66074;50.764;6.090;2023-07-13T01:32:17;18.70;77.20
19803;DHT22;66074;50.764;6.090;2023-07-13T01:34:48;18.70;77.20
19803;DHT22;66074;50.764;6.090;2023-07-13T01:37:13;18.70;77.40
19803;DHT22;66074;50.764;6.090;2023-07-13T01:39:39;18.60;77.00
19803;DHT22;66074;50.764;6.090;2023-07-13T01:42:05;18.60;77.50
19803;DHT22;66074;50.764;6.090;2023-07-13T01:44:31;18.60;77.10
19803;DHT22;66074;50.764;6.090;2023-07-13T01:46:57;18.60;77.50
19803;DHT22;66074;50.764;6.090;2023-07-13T01:49:22;18.50;77.80
19803;DHT22;66074;50.764;6.090;2023-07-13T01:51:48;18.50;77.60
19803;DHT22;66074;50.764;6.090;2023-07-13T01:54:13;18.50;77.50
19803;DHT22;66074;50.764;6.090;2023-07-13T01:56:39;18.50;77.70
19803;DHT22;66074;50.764;6.090;2023-07-13T01:59:07;18.50;77.60
19803;DHT22;66074;50.764;6.090;2023-07-13T02:01:32;18.40;77.60
19803;DHT22;66074;50.764;6.090;2023-07-13T02:03:58;18.40;77.60
19803;DHT22;66074;50.764;6.090;2023-07-13T02:06:24;18.40;77.80
19803;DHT22;66074;50.764;6.090;2023-07-13T02:08:49;18.30;77.90
19803;DHT22;66074;50.764;6.090;2023-07-13T02:11:15;18.30;77.90
19803;DHT22;66074;50.764;6.090;2023-07-13T02:13:41;18.30;78.40
19803;DHT22;66074;50.764;6.090;2023-07-13T02:16:06;18.30;78.40
19803;DHT22;66074;50.764;6.090;2023-07-13T02:18:32;18.40;78.40
19803;DHT22;66074;50.764;6.090;2023-07-13T02:20:58;18.30;78.00
19803;DHT22;66074;50.764;6.090;2023-07-13T02:23:24;18.30;78.80
19803;DHT22;66074;50.764;6.090;2023-07-13T02:25:57;18.20;78.90
19803;DHT22;66074;50.764;6.090;2023-07-13T02:28:23;18.20;78.90
19803;DHT22;66074;50.764;6.090;2023-07-13T02:30:49;18.20;79.40
19803;DHT22;66074;50.764;6.090;2023-07-13T02:33:15;18.20;79.10
19803;DHT22;66074;50.764;6.090;2023-07-13T02:35:40;18.20;80.00
19803;DHT22;66074;50.764;6.090;2023-07-13T02:38:06;18.10;79.80
19803;DHT22;66074;50.764;6.090;2023-07-13T02:40:32;18.10;79.90
19803;DHT22;66074;50.764;6.090;2023-07-13T02:43:01;18.10;79.70
19803;DHT22;66074;50.764;6.090;2023-07-13T02:45:27;18.10;80.10
19803;DHT22;66074;50.764;6.090;2023-07-13T02:47:53;18.10;80.30
19803;DHT22;66074;50.764;6.090;2023-07-13T02:50:19;18.10;80.20
19803;DHT22;66074;50.764;6.090;2023-07-13T02:52:45;18.10;80.90
19803;DHT22;66074;50.764;6.090;2023-07-13T02:55:10;18.10;80.50
19803;DHT22;66074;50.764;6.090;2023-07-13T02:57:36;18.10;80.80
19803;DHT22;66074;50.764;6.090;2023-07-13T03:00:03;18.00;81.70
19803;DHT22;66074;50.764;6.090;2023-07-13T03:02:33;18.00;81.00
19803;DHT22;66074;50.764;6.090;2023-07-13T03:05:00;18.00;81.80
19803;DHT22;66074;50.764;6.090;2023-07-13T03:07:26;18.00;81.50
19803;DHT22;66074;50.764;6.090;2023-07-13T03:09:58;18.00;81.30
19803;DHT22;66074;50.764;6.090;2023-07-13T03:12:25;17.90;82.00
19803;DHT22;66074;50.764;6.090;2023-07-13T03:14:51;17.90;81.40
19803;DHT22;66074;50.764;6.090;2023-07-13T03:17:17;17.90;81.90
19803;DHT22;66074;50.764;6.090;2023-07-13T03:19:42;17.90;81.50
19803;DHT22;66074;50.764;6.090;2023-07-13T03:22:09;17.90;82.30
19803;DHT22;66074;50.764;6.090;2023-07-13T03:24:35;17.80;82.00
19803;DHT22;66074;50.764;6.090;2023-07-13T03:27:04;17.90;82.50
19803;DHT22;66074;50.764;6.090;2023-07-13T03:29:30;17.80;82.30
19803;DHT22;66074;50.764;6.090;2023-07-13T03:31:56;17.80;82.50
19803;DHT22;66074;50.764;6.090;2023-07-13T03:34:22;17.70;83.00
19803;DHT22;66074;50.764;6.090;2023-07-13T03:36:47;17.80;82.70
19803;DHT22;66074;50.764;6.090;2023-07-13T03:39:13;17.70;82.90
19803;DHT22;66074;50.764;6.090;2023-07-13T03:41:39;17.70;83.20
19803;DHT22;66074;50.764;6.090;2023-07-13T03:44:04;17.70;83.80
19803;DHT22;66074;50.764;6.090;2023-07-13T03:46:30;17.70;82.80
19803;DHT22;66074;50.764;6.090;2023-07-13T03:48:57;17.70;83.20
19803;DHT22;66074;50.764;6.090;2023-07-13T03:51:23;17.70;83.90
19803;DHT22;66074;50.764;6.090;2023-07-13T03:53:49;17.60;83.60
19803;DHT22;66074;50.764;6.090;2023-07-13T03:56:16;17.70;83.80
19803;DHT22;66074;50.764;6.090;2023-07-13T03:58:44;17.70;83.50
19803;DHT22;66074;50.764;6.090;2023-07-13T04:01:12;17.70;84.00
19803;DHT22;66074;50.764;6.090;2023-07-13T04:03:38;17.70;84.20
19803;DHT22;66074;50.764;6.090;2023-07-13T04:06:06;17.70;84.00
19803;DHT22;66074;50.764;6.090;2023-07-13T04:08:34;17.60;84.20
19803;DHT22;66074;50.764;6.090;2023-07-13T04:11:01;17.60;84.60
19803;DHT22;66074;50.764;6.090;2023-07-13T04:13:27;17.60;84.00
19803;DHT22;66074;50.764;6.090;2023-07-13T04:15:53;17.50;85.30
19803;DHT22;66074;50.764;6.090;2023-07-13T04:18:20;17.60;84.70
19803;DHT22;66074;50.764;6.090;2023-07-13T04:20:49;17.60;84.20
19803;DHT22;66074;50.764;6.090;2023-07-13T04:23:16;17.60;84.50
19803;DHT22;66074;50.764;6.090;2023-07-13T04:25:45;17.60;84.80
19803;DHT22;66074;50.764;6.090;2023-07-13T04:28:11;17.60;85.10
19803;DHT22;66074;50.764;6.090;2023-07-13T04:30:37;17.60;84.80
19803;DHT22;66074;50.764;6.090;2023-07-13T04:33:03;17.60;85.50
19803;DHT22;66074;50.764;6.090;2023-07-13T04:35:29;17.60;85.40
19803;DHT22;66074;50.764;6.090;2023-07-13T04:37:56;17.60;84.90
19803;DHT22;66074;50.764;6.090;2023-07-13T04:40:21;17.60;85.70
19803;DHT22;66074;50.764;6.090;2023-07-13T04:42:47;17.60;85.30
19803;DHT22;66074;50.764;6.090;2023-07-13T04:45:14;17.70;85.40
19803;DHT22;66074;50.764;6.090;2023-07-13T04:47:40;17.60;85.40
19803;DHT22;66074;50.764;6.090;2023-07-13T04:50:07;17.70;85.50
19803;DHT22;66074;50.764;6.090;2023-07-13T04:52:33;17.70;85.80
19803;DHT22;66074;50.764;6.090;2023-07-13T04:54:59;17.70;86.10
19803;DHT22;66074;50.764;6.090;2023-07-13T04:57:26;17.70;86.00
19803;DHT22;66074;50.764;6.090;2023-07-13T04:59:52;17.80;85.70
19803;DHT22;66074;50.764;6.090;2023-07-13T05:02:18;17.80;85.90
19803;DHT22;66074;50.764;6.090;2023-07-13T05:04:46;17.90;85.90
19803;DHT22;66074;50.764;6.090;2023-07-13T05:07:12;18.00;85.80
19803;DHT22;66074;50.764;6.090;2023-07-13T05:09:38;18.00;86.00
19803;DHT22;66074;50.764;6.090;2023-07-13T05:12:06;18.10;86.30
19803;DHT22;66074;50.764;6.090;2023-07-13T05:14:32;18.10;86.00
19803;DHT22;66074;50.764;6.090;2023-07-13T05:16:57;18.10;86.20
19803;DHT22;66074;50.764;6.090;2023-07-13T05:19:23;18.10;86.30
19803;DHT22;66074;50.764;6.090;2023-07-13T05:21:48;18.10;86.50
19803;DHT22;66074;50.764;6.090;2023-07-13T05:24:14;18.10;86.90
19803;DHT22;66074;50.764;6.090;2023-07-13T05:26:40;18.10;86.30
19803;DHT22;66074;50.764;6.090;2023-07-13T05:29:05;18.10;86.50
19803;DHT22;66074;50.764;6.090;2023-07-13T05:31:31;18.00;86.60
19803;DHT22;66074;50.764;6.090;2023-07-13T05:33:56;18.10;86.90
19803;DHT22;66074;50.764;6.090;2023-07-13T05:36:22;18.00;86.90
19803;DHT22;66074;50.764;6.090;2023-07-13T05:38:47;18.00;87.10
19803;DHT22;66074;50.764;6.090;2023-07-13T05:41:13;18.00;87.40
19803;DHT22;66074;50.764;6.090;2023-07-13T05:43:38;18.00;87.10
19803;DHT22;66074;50.764;6.090;2023-07-13T05:46:04;18.10;86.80
19803;DHT22;66074;50.764;6.090;2023-07-13T05:48:30;18.10;86.80
19803;DHT22;66074;50.764;6.090;2023-07-13T05:50:55;18.20;87.10
19803;DHT22;66074;50.764;6.090;2023-07-13T05:53:21;18.20;87.50
19803;DHT22;66074;50.764;6.090;2023-07-13T05:55:47;18.20;87.00
19803;DHT22;66074;50.764;6.090;2023-07-13T05:58:16;18.20;87.00
19803;DHT22;66074;50.764;6.090;2023-07-13T06:00:42;18.30;87.30
19803;DHT22;66074;50.764;6.090;2023-07-13T06:03:08;18.40;87.50
19803;DHT22;66074;50.764;6.090;2023-07-13T06:05:35;18.40;88.30
19803;DHT22;66074;50.764;6.090;2023-07-13T06:08:02;18.40;88.20
19803;DHT22;66074;50.764;6.090;2023-07-13T06:10:28;18.40;87.70
19803;DHT22;66074;50.764;6.090;2023-07-13T06:12:53;18.40;88.20
19803;DHT22;66074;50.764;6.090;2023-07-13T06:15:19;18.50;88.10
19803;DHT22;66074;50.764;6.090;2023-07-13T06:17:45;18.60;88.10
19803;DHT22;66074;50.764;6.090;2023-07-13T06:20:10;18.70;88.00
19803;DHT22;66074;50.764;6.090;2023-07-13T06:22:36;18.80;88.10
19803;DHT22;66074;50.764;6.090;2023-07-13T06:25:02;18.80;88.10
19803;DHT22;66074;50.764;6.090;2023-07-13T06:27:28;18.90;88.10
19803;DHT22;66074;50.764;6.090;2023-07-13T06:29:53;18.90;88.20
19803;DHT22;66074;50.764;6.090;2023-07-13T06:32:19;19.00;88.50
19803;DHT22;66074;50.764;6.090;2023-07-13T06:34:44;19.00;88.30
19803;DHT22;66074;50.764;6.090;2023-07-13T06:37:11;19.00;87.90
19803;DHT22;66074;50.764;6.090;2023-07-13T06:39:36;19.00;88.10
19803;DHT22;66074;50.764;6.090;2023-07-13T06:42:02;19.00;88.10
19803;DHT22;66074;50.764;6.090;2023-07-13T06:44:28;19.00;88.20
19803;DHT22;66074;50.764;6.090;2023-07-13T06:46:53;19.00;88.20
19803;DHT22;66074;50.764;6.090;2023-07-13T06:49:19;19.00;88.20
19803;DHT22;66074;50.764;6.090;2023-07-13T06:51:44;19.00;88.20
19803;DHT22;66074;50.764;6.090;2023-07-13T06:54:10;19.10;88.30
19803;DHT22;66074;50.764;6.090;2023-07-13T06:56:36;19.00;88.40
19803;DHT22;66074;50.764;6.090;2023-07-13T06:59:01;19.10;88.40
19803;DHT22;66074;50.764;6.090;2023-07-13T07:01:27;19.00;88.10
19803;DHT22;66074;50.764;6.090;2023-07-13T07:03:52;19.10;88.60
19803;DHT22;66074;50.764;6.090;2023-07-13T07:06:20;19.20;88.70
19803;DHT22;66074;50.764;6.090;2023-07-13T07:08:47;19.20;88.70
19803;DHT22;66074;50.764;6.090;2023-07-13T07:11:14;19.20;88.70
19803;DHT22;66074;50.764;6.090;2023-07-13T07:13:40;19.30;88.60
19803;DHT22;66074;50.764;6.090;2023-07-13T07:16:06;19.30;88.50
19803;DHT22;66074;50.764;6.090;2023-07-13T07:18:32;19.40;88.60
19803;DHT22;66074;50.764;6.090;2023-07-13T07:20:57;19.40;88.60
19803;DHT22;66074;50.764;6.090;2023-07-13T07:23:23;19.50;89.30
19803;DHT22;66074;50.764;6.090;2023-07-13T07:25:49;19.60;88.20
19803;DHT22;66074;50.764;6.090;2023-07-13T07:28:16;19.60;88.00
19803;DHT22;66074;50.764;6.090;2023-07-13T07:30:45;19.50;87.90
19803;DHT22;66074;50.764;6.090;2023-07-13T07:33:11;19.50;88.00
19803;DHT22;66074;50.764;6.090;2023-07-13T07:35:37;19.60;88.00
19803;DHT22;66074;50.764;6.090;2023-07-13T07:38:03;19.60;88.00
19803;DHT22;66074;50.764;6.090;2023-07-13T07:40:28;19.70;88.00
19803;DHT22;66074;50.764;6.090;2023-07-13T07:42:54;19.70;87.80
19803;DHT22;66074;50.764;6.090;2023-07-13T07:45:20;19.70;87.70
19803;DHT22;66074;50.764;6.090;2023-07-13T07:47:46;19.80;88.10
19803;DHT22;66074;50.764;6.090;2023-07-13T07:50:13;19.90;87.90
19803;DHT22;66074;50.764;6.090;2023-07-13T07:52:39;20.00;87.70
19803;DHT22;66074;50.764;6.090;2023-07-13T07:55:06;20.00;87.60
19803;DHT22;66074;50.764;6.090;2023-07-13T07:57:32;20.20;87.60
19803;DHT22;66074;50.764;6.090;2023-07-13T07:59:58;20.20;87.60
19803;DHT22;66074;50.764;6.090;2023-07-13T08:02:25;20.30;87.40
19803;DHT22;66074;50.764;6.090;2023-07-13T08:04:51;20.30;87.30
19803;DHT22;66074;50.764;6.090;2023-07-13T08:07:16;20.30;87.10
19803;DHT22;66074;50.764;6.090;2023-07-13T08:09:42;20.20;86.80
19803;DHT22;66074;50.764;6.090;2023-07-13T08:12:08;20.10;86.80
19803;DHT22;66074;50.764;6.090;2023-07-13T08:14:34;20.00;86.90
19803;DHT22;66074;50.764;6.090;2023-07-13T08:16:59;20.00;87.00
19803;DHT22;66074;50.764;6.090;2023-07-13T08:19:25;20.00;87.00
19803;DHT22;66074;50.764;6.090;2023-07-13T08:21:50;19.90;87.10
19803;DHT22;66074;50.764;6.090;2023-07-13T08:24:16;19.80;87.00
19803;DHT22;66074;50.764;6.090;2023-07-13T08:26:44;19.80;87.00
19803;DHT22;66074;50.764;6.090;2023-07-13T08:29:11;19.70;87.00
19803;DHT22;66074;50.764;6.090;2023-07-13T08:31:37;19.70;86.90
19803;DHT22;66074;50.764;6.090;2023-07-13T08:34:02;19.70;87.20
19803;DHT22;66074;50.764;6.090;2023-07-13T08:36:29;19.70;87.30
19803;DHT22;66074;50.764;6.090;2023-07-13T08:38:54;19.60;87.20
19803;DHT22;66074;50.764;6.090;2023-07-13T08:41:21;19.60;87.10
19803;DHT22;66074;50.764;6.090;2023-07-13T08:43:49;19.60;88.00
19803;DHT22;66074;50.764;6.090;2023-07-13T08:46:21;19.60;87.60
19803;DHT22;66074;50.764;6.090;2023-07-13T08:48:50;19.60;87.40
19803;DHT22;66074;50.764;6.090;2023-07-13T08:51:46;19.70;87.50
19803;DHT22;66074;50.764;6.090;2023-07-13T08:56:54;19.90;87.50
19803;DHT22;66074;50.764;6.090;2023-07-13T08:59:25;20.00;87.30
19803;DHT22;66074;50.764;6.090;2023-07-13T09:04:50;20.10;87.30
19803;DHT22;66074;50.764;6.090;2023-07-13T09:15:29;20.30;86.90
19803;DHT22;66074;50.764;6.090;2023-07-13T09:18:08;20.30;86.80
19803;DHT22;66074;50.764;6.090;2023-07-13T09:21:31;20.40;86.80
19803;DHT22;66074;50.764;6.090;2023-07-13T09:23:53;20.50;86.70
19803;DHT22;66074;50.764;6.090;2023-07-13T09:26:22;20.50;86.40
19803;DHT22;66074;50.764;6.090;2023-07-13T09:28:57;20.50;86.40
19803;DHT22;66074;50.764;6.090;2023-07-13T09:31:31;20.60;86.50
19803;DHT22;66074;50.764;6.090;2023-07-13T09:34:02;20.70;86.80
19803;DHT22;66074;50.764;6.090;2023-07-13T09:36:30;20.90;85.40
19803;DHT22;66074;50.764;6.090;2023-07-13T09:39:11;21.00;86.00
19803;DHT22;66074;50.764;6.090;2023-07-13T09:44:31;21.20;85.90
19803;DHT22;66074;50.764;6.090;2023-07-13T09:46:59;21.30;85.40
19803;DHT22;66074;50.764;6.090;2023-07-13T09:49:29;21.30;85.70
19803;DHT22;66074;50.764;6.090;2023-07-13T09:52:04;21.30;85.60
19803;DHT22;66074;50.764;6.090;2023-07-13T09:54:34;21.30;85.00
19803;DHT22;66074;50.764;6.090;2023-07-13T09:57:01;21.30;84.90
19803;DHT22;66074;50.764;6.090;2023-07-13T09:59:36;21.30;85.30
19803;DHT22;66074;50.764;6.090;2023-07-13T10:07:24;21.50;84.80
19803;DHT22;66074;50.764;6.090;2023-07-13T10:09:54;21.70;84.90
19803;DHT22;66074;50.764;6.090;2023-07-13T10:12:21;21.80;84.70
19803;DHT22;66074;50.764;6.090;2023-07-13T10:14:57;21.90;84.30
19803;DHT22;66074;50.764;6.090;2023-07-13T10:17:32;22.10;84.20
19803;DHT22;66074;50.764;6.090;2023-07-13T10:20:02;22.20;83.80
19803;DHT22;66074;50.764;6.090;2023-07-13T10:22:43;22.40;83.80
19803;DHT22;66074;50.764;6.090;2023-07-13T10:27:44;22.60;82.10
19803;DHT22;66074;50.764;6.090;2023-07-13T10:30:17;22.60;83.00
19803;DHT22;66074;50.764;6.090;2023-07-13T10:32:45;22.60;81.90
19803;DHT22;66074;50.764;6.090;2023-07-13T10:35:14;22.50;81.80
19803;DHT22;66074;50.764;6.090;2023-07-13T10:37:44;22.50;82.20
19803;DHT22;66074;50.764;6.090;2023-07-13T10:40:18;22.50;82.00
19803;DHT22;66074;50.764;6.090;2023-07-13T10:42:48;22.50;81.70
19803;DHT22;66074;50.764;6.090;2023-07-13T10:45:18;22.50;81.50
19803;DHT22;66074;50.764;6.090;2023-07-13T10:47:45;22.40;81.60
19803;DHT22;66074;50.764;6.090;2023-07-13T10:50:20;22.50;82.10
19803;DHT22;66074;50.764;6.090;2023-07-13T10:52:49;22.60;81.80
19803;DHT22;66074;50.764;6.090;2023-07-13T10:55:54;22.60;80.70
19803;DHT22;66074;50.764;6.090;2023-07-13T10:58:32;22.40;81.00
19803;DHT22;66074;50.764;6.090;2023-07-13T11:03:33;22.50;81.30
19803;DHT22;66074;50.764;6.090;2023-07-13T11:06:16;22.70;81.00
19803;DHT22;66074;50.764;6.090;2023-07-13T11:18:49;22.50;80.70
19803;DHT22;66074;50.764;6.090;2023-07-13T11:21:21;22.50;80.50
19803;DHT22;66074;50.764;6.090;2023-07-13T11:24:14;22.50;80.50
19803;DHT22;66074;50.764;6.090;2023-07-13T11:31:41;22.60;80.80
19803;DHT22;66074;50.764;6.090;2023-07-13T11:34:15;22.60;80.50
19803;DHT22;66074;50.764;6.090;2023-07-13T11:36:44;22.70;80.80
19803;DHT22;66074;50.764;6.090;2023-07-13T11:39:18;22.70;80.60
19803;DHT22;66074;50.764;6.090;2023-07-13T11:41:57;22.80;80.70
19803;DHT22;66074;50.764;6.090;2023-07-13T11:44:25;22.90;80.80
19803;DHT22;66074;50.764;6.090;2023-07-13T11:46:53;22.90;80.60
19803;DHT22;66074;50.764;6.090;2023-07-13T11:49:21;22.90;80.60
19803;DHT22;66074;50.764;6.090;2023-07-13T11:51:47;22.80;79.80
19803;DHT22;66074;50.764;6.090;2023-07-13T11:54:34;22.70;79.50
19803;DHT22;66074;50.764;6.090;2023-07-13T11:59:51;22.60;78.90
19803;DHT22;66074;50.764;6.090;2023-07-13T12:02:29;22.50;79.30
19803;DHT22;66074;50.764;6.090;2023-07-13T12:04:56;22.60;79.50
19803;DHT22;66074;50.764;6.090;2023-07-13T12:07:22;22.70;79.30
19803;DHT22;66074;50.764;6.090;2023-07-13T12:09:48;22.70;79.50
19803;DHT22;66074;50.764;6.090;2023-07-13T12:12:21;22.70;79.30
19803;DHT22;66074;50.764;6.090;2023-07-13T12:14:53;22.70;78.80
19803;DHT22;66074;50.764;6.090;2023-07-13T12:17:23;22.80;78.60
19803;DHT22;66074;50.764;6.090;2023-07-13T12:19:50;22.90;78.20
19803;DHT22;66074;50.764;6.090;2023-07-13T12:22:18;23.00;78.40
19803;DHT22;66074;50.764;6.090;2023-07-13T12:24:45;23.00;78.20
19803;DHT22;66074;50.764;6.090;2023-07-13T12:27:25;23.10;78.20
19803;DHT22;66074;50.764;6.090;2023-07-13T12:29:58;23.20;78.40
19803;DHT22;66074;50.764;6.090;2023-07-13T12:32:25;23.30;77.60
19803;DHT22;66074;50.764;6.090;2023-07-13T12:35:06;23.40;77.50
19803;DHT22;66074;50.764;6.090;2023-07-13T12:37:42;23.40;77.30
19803;DHT22;66074;50.764;6.090;2023-07-13T12:40:14;23.40;76.90
19803;DHT22;66074;50.764;6.090;2023-07-13T12:42:40;23.40;76.50
19803;DHT22;66074;50.764;6.090;2023-07-13T12:45:26;23.50;77.20
19803;DHT22;66074;50.764;6.090;2023-07-13T12:47:56;23.50;76.40
19803;DHT22;66074;50.764;6.090;2023-07-13T12:50:39;23.50;76.20
19803;DHT22;66074;50.764;6.090;2023-07-13T12:53:13;23.50;76.70
19803;DHT22;66074;50.764;6.090;2023-07-13T12:55:44;23.60;76.70
19803;DHT22;66074;50.764;6.090;2023-07-13T12:58:36;23.70;76.50
19803;DHT22;66074;50.764;6.090;2023-07-13T13:01:02;23.80;76.50
19803;DHT22;66074;50.764;6.090;2023-07-13T13:03:37;23.80;76.50
19803;DHT22;66074;50.764;6.090;2023-07-13T13:08:40;23.80;75.40
19803;DHT22;66074;50.764;6.090;2023-07-13T13:11:08;23.80;75.60
19803;DHT22;66074;50.764;6.090;2023-07-13T13:13:35;23.90;74.70
19803;DHT22;66074;50.764;6.090;2023-07-13T13:16:14;23.90;74.70
19803;DHT22;66074;50.764;6.090;2023-07-13T13:18:42;24.00;74.10
19803;DHT22;66074;50.764;6.090;2023-07-13T13:21:09;24.00;73.70
19803;DHT22;66074;50.764;6.090;2023-07-13T13:23:35;24.20;74.80
19803;DHT22;66074;50.764;6.090;2023-07-13T13:26:01;24.30;74.30
19803;DHT22;66074;50.764;6.090;2023-07-13T13:28:27;24.50;74.30
19803;DHT22;66074;50.764;6.090;2023-07-13T13:30:53;24.90;74.50
19803;DHT22;66074;50.764;6.090;2023-07-13T13:33:20;25.50;74.00
19803;DHT22;66074;50.764;6.090;2023-07-13T13:35:46;26.40;75.20
19803;DHT22;66074;50.764;6.090;2023-07-13T13:38:14;27.10;73.50
19803;DHT22;66074;50.764;6.090;2023-07-13T13:40:42;27.70;75.00
19803;DHT22;66074;50.764;6.090;2023-07-13T13:43:18;28.10;74.70
19803;DHT22;66074;50.764;6.090;2023-07-13T13:45:45;28.40;71.00
19803;DHT22;66074;50.764;6.090;2023-07-13T13:48:15;28.60;71.80
19803;DHT22;66074;50.764;6.090;2023-07-13T13:50:42;29.00;70.80
19803;DHT22;66074;50.764;6.090;2023-07-13T13:53:14;29.30;70.70
19803;DHT22;66074;50.764;6.090;2023-07-13T13:55:40;29.70;69.60
19803;DHT22;66074;50.764;6.090;2023-07-13T13:58:08;30.20;69.20
19803;DHT22;66074;50.764;6.090;2023-07-13T14:00:34;30.50;68.00
19803;DHT22;66074;50.764;6.090;2023-07-13T14:03:00;30.70;68.60
19803;DHT22;66074;50.764;6.090;2023-07-13T14:05:27;30.50;65.40
19803;DHT22;66074;50.764;6.090;2023-07-13T14:07:53;30.00;67.10
19803;DHT22;66074;50.764;6.090;2023-07-13T14:10:20;29.80;67.50
19803;DHT22;66074;50.764;6.090;2023-07-13T14:12:48;29.70;69.50
19803;DHT22;66074;50.764;6.090;2023-07-13T14:15:36;29.70;68.60
19803;DHT22;66074;50.764;6.090;2023-07-13T14:18:01;29.70;66.50
19803;DHT22;66074;50.764;6.090;2023-07-13T14:20:27;30.10;66.10
19803;DHT22;66074;50.764;6.090;2023-07-13T14:22:53;30.30;64.70
19803;DHT22;66074;50.764;6.090;2023-07-13T14:25:20;30.00;64.10
19803;DHT22;66074;50.764;6.090;2023-07-13T14:27:49;29.80;64.30
19803;DHT22;66074;50.764;6.090;2023-07-13T14:30:20;29.80;64.00
19803;DHT22;66074;50.764;6.090;2023-07-13T14:32:47;29.70;63.90
19803;DHT22;66074;50.764;6.090;2023-07-13T14:35:14;29.20;62.80
19803;DHT22;66074;50.764;6.090;2023-07-13T14:37:41;28.70;62.80
19803;DHT22;66074;50.764;6.090;2023-07-13T14:40:21;28.10;62.50
19803;DHT22;66074;50.764;6.090;2023-07-13T14:42:50;27.50;62.50
19803;DHT22;66074;50.764;6.090;2023-07-13T14:45:18;27.00;63.30
19803;DHT22;66074;50.764;6.090;2023-07-13T14:47:44;26.70;63.60
19803;DHT22;66074;50.764;6.090;2023-07-13T14:50:15;26.40;63.40
19803;DHT22;66074;50.764;6.090;2023-07-13T14:52:41;26.00;64.50
19803;DHT22;66074;50.764;6.090;2023-07-13T14:55:16;25.80;64.90
19803;DHT22;66074;50.764;6.090;2023-07-13T14:57:42;25.50;65.90
19803;DHT22;66074;50.764;6.090;2023-07-13T15:00:15;25.30;66.80
19803;DHT22;66074;50.764;6.090;2023-07-13T15:02:53;25.10;66.90
19803;DHT22;66074;50.764;6.090;2023-07-13T15:05:26;25.00;66.40
19803;DHT22;66074;50.764;6.090;2023-07-13T15:07:53;25.00;67.60
19803;DHT22;66074;50.764;6.090;2023-07-13T15:10:21;24.90;67.30
19803;DHT22;66074;50.764;6.090;2023-07-13T15:12:47;24.80;66.60
19803;DHT22;66074;50.764;6.090;2023-07-13T15:15:14;24.80;67.70
19803;DHT22;66074;50.764;6.090;2023-07-13T15:17:45;24.60;68.80
19803;DHT22;66074;50.764;6.090;2023-07-13T15:20:34;24.40;69.70
19803;DHT22;66074;50.764;6.090;2023-07-13T15:23:01;24.20;70.60
19803;DHT22;66074;50.764;6.090;2023-07-13T15:25:28;24.10;71.20
19803;DHT22;66074;50.764;6.090;2023-07-13T15:27:56;24.00;71.20
19803;DHT22;66074;50.764;6.090;2023-07-13T15:30:25;23.90;70.90
19803;DHT22;66074;50.764;6.090;2023-07-13T15:32:51;23.70;72.30
19803;DHT22;66074;50.764;6.090;2023-07-13T15:35:19;23.60;71.10
19803;DHT22;66074;50.764;6.090;2023-07-13T15:37:45;23.60;71.90
19803;DHT22;66074;50.764;6.090;2023-07-13T15:40:12;23.70;71.30
19803;DHT22;66074;50.764;6.090;2023-07-13T15:42:40;23.80;72.10
19803;DHT22;66074;50.764;6.090;2023-07-13T15:45:25;23.90;73.00
19803;DHT22;66074;50.764;6.090;2023-07-13T15:47:51;24.00;72.80
19803;DHT22;66074;50.764;6.090;2023-07-13T15:50:24;24.00;72.10
19803;DHT22;66074;50.764;6.090;2023-07-13T15:52:53;24.00;72.40
19803;DHT22;66074;50.764;6.090;2023-07-13T15:55:20;24.00;73.30
19803;DHT22;66074;50.764;6.090;2023-07-13T15:57:51;24.10;73.40
19803;DHT22;66074;50.764;6.090;2023-07-13T16:00:25;24.10;72.30
19803;DHT22;66074;50.764;6.090;2023-07-13T16:02:52;24.20;73.20
19803;DHT22;66074;50.764;6.090;2023-07-13T16:05:19;24.00;73.80
19803;DHT22;66074;50.764;6.090;2023-07-13T16:07:46;24.00;74.40
19803;DHT22;66074;50.764;6.090;2023-07-13T16:10:17;24.00;74.00
19803;DHT22;66074;50.764;6.090;2023-07-13T16:12:45;23.90;74.00
19803;DHT22;66074;50.764;6.090;2023-07-13T16:15:15;24.00;74.10
19803;DHT22;66074;50.764;6.090;2023-07-13T16:17:42;23.90;74.00
19803;DHT22;66074;50.764;6.090;2023-07-13T16:20:08;23.90;73.90
19803;DHT22;66074;50.764;6.090;2023-07-13T16:22:39;23.80;74.00
19803;DHT22;66074;50.764;6.090;2023-07-13T16:25:25;23.80;73.50
19803;DHT22;66074;50.764;6.090;2023-07-13T16:27:53;23.70;73.30
19803;DHT22;66074;50.764;6.090;2023-07-13T16:30:24;23.60;73.90
19803;DHT22;66074;50.764;6.090;2023-07-13T16:32:52;23.50;73.80
19803;DHT22;66074;50.764;6.090;2023-07-13T16:35:26;23.40;72.70
19803;DHT22;66074;50.764;6.090;2023-07-13T16:37:52;23.30;75.10